createdAt,value
2018-12-17T00:02:14.860Z,99473.00
2018-12-17T00:04:44.185Z,99486.00
2018-12-17T00:07:14.159Z,99485.00
2018-12-17T00:09:43.559Z,99482.00
2018-12-17T00:12:16.607Z,99489.00
2018-12-17T00:14:49.109Z,99491.00
2018-12-17T00:17:20.721Z,99494.00
2018-12-17T00:19:57.206Z,99498.00
2018-12-17T00:22:26.656Z,99497.00
2018-12-17T00:24:55.977Z,99492.00
2018-12-17T00:27:25.331Z,99501.00
2018-12-17T00:29:54.655Z,99489.00
2018-12-17T00:32:24.807Z,99496.00
2018-12-17T00:34:54.209Z,99500.00
2018-12-17T00:37:24.966Z,99502.00
2018-12-17T00:39:55.939Z,99496.00
2018-12-17T00:42:26.101Z,99498.00
2018-12-17T00:44:55.432Z,99496.00
2018-12-17T00:47:25.699Z,99507.00
2018-12-17T00:49:55.137Z,99502.00
2018-12-17T00:52:24.493Z,99505.00
2018-12-17T00:54:53.881Z,99507.00
2018-12-17T00:57:25.580Z,99504.00
2018-12-17T00:59:56.533Z,99506.00
2018-12-17T01:02:26.758Z,99512.00
2018-12-17T01:04:56.745Z,99522.00
2018-12-17T01:07:30.815Z,99529.00
2018-12-17T01:10:01.988Z,99517.00
2018-12-17T01:12:32.085Z,99518.00
2018-12-17T01:15:04.023Z,99529.00
2018-12-17T01:17:34.219Z,99522.00
2018-12-17T01:20:04.137Z,99532.00
2018-12-17T01:22:37.340Z,99526.00
2018-12-17T01:25:07.499Z,99523.00
2018-12-17T01:27:37.570Z,99541.00
2018-12-17T01:30:08.324Z,99548.00
2018-12-17T01:32:40.968Z,99545.00
2018-12-17T01:35:11.275Z,99540.00
2018-12-17T01:37:43.214Z,99555.00
2018-12-17T01:40:13.374Z,99553.00
2018-12-17T01:42:43.335Z,99560.00
2018-12-17T01:45:12.800Z,99565.00
2018-12-17T01:47:42.276Z,99553.00
2018-12-17T01:50:11.619Z,99562.00
2018-12-17T01:52:40.958Z,99560.00
2018-12-17T01:55:10.379Z,99568.00
2018-12-17T01:57:40.651Z,99564.00
2018-12-17T02:00:11.039Z,99563.00
2018-12-17T02:02:40.481Z,99569.00
2018-12-17T02:05:11.223Z,99568.00
2018-12-17T02:07:41.199Z,99570.00
2018-12-17T02:10:10.552Z,99555.00
2018-12-17T02:12:40.869Z,99565.00
2018-12-17T02:15:12.677Z,99567.00
2018-12-17T02:17:42.599Z,99565.00
2018-12-17T02:20:12.198Z,99563.00
2018-12-17T02:22:43.866Z,99557.00
2018-12-17T02:25:14.705Z,99566.00
2018-12-17T02:27:44.943Z,99564.00
2018-12-17T02:30:14.748Z,99570.00
2018-12-17T02:32:44.311Z,99567.00
2018-12-17T02:35:14.772Z,99562.00
2018-12-17T02:37:44.155Z,99570.00
2018-12-17T02:40:15.054Z,99574.00
2018-12-17T02:42:45.829Z,99575.00
2018-12-17T02:45:16.303Z,99581.00
2018-12-17T02:47:45.921Z,99585.00
2018-12-17T02:50:15.277Z,99581.00
2018-12-17T02:52:45.542Z,99584.00
2018-12-17T02:55:15.520Z,99595.00
2018-12-17T02:57:46.834Z,99592.00
2018-12-17T03:00:19.797Z,99595.00
2018-12-17T03:02:50.429Z,99596.00
2018-12-17T03:05:21.772Z,99595.00
2018-12-17T03:07:52.089Z,99600.00
2018-12-17T03:10:22.052Z,99608.00
2018-12-17T03:12:51.803Z,99605.00
2018-12-17T03:15:21.752Z,99604.00
2018-12-17T03:17:51.935Z,99596.00
2018-12-17T03:20:21.442Z,99603.00
2018-12-17T03:22:54.647Z,99604.00
2018-12-17T03:25:24.777Z,99612.00
2018-12-17T03:27:55.926Z,99612.00
2018-12-17T03:30:25.526Z,99621.00
2018-12-17T03:32:55.716Z,99619.00
2018-12-17T03:35:25.897Z,99624.00
2018-12-17T03:37:55.691Z,99621.00
2018-12-17T03:40:25.208Z,99619.00
2018-12-17T03:42:54.889Z,99621.00
2018-12-17T03:45:24.399Z,99625.00
2018-12-17T03:47:54.397Z,99626.00
2018-12-17T03:50:23.741Z,99629.00
2018-12-17T03:52:57.731Z,99636.00
2018-12-17T03:55:27.523Z,99630.00
2018-12-17T03:57:57.015Z,99633.00
2018-12-17T04:00:26.461Z,99632.00
2018-12-17T04:02:56.251Z,99644.00
2018-12-17T04:05:27.435Z,99644.00
2018-12-17T04:07:57.299Z,99644.00
2018-12-17T04:10:26.659Z,99650.00
2018-12-17T04:12:56.857Z,99649.00
2018-12-17T04:15:27.034Z,99645.00
2018-12-17T04:17:57.223Z,99647.00
2018-12-17T04:20:27.403Z,99646.00
2018-12-17T04:22:56.759Z,99653.00
2018-12-17T04:25:26.125Z,99646.00
2018-12-17T04:27:55.511Z,99660.00
2018-12-17T04:30:29.888Z,99661.00
2018-12-17T04:32:59.994Z,99674.00
2018-12-17T04:35:29.362Z,99675.00
2018-12-17T04:37:58.830Z,99669.00
2018-12-17T04:40:29.329Z,99665.00
2018-12-17T04:43:00.803Z,99676.00
2018-12-17T04:45:30.510Z,99672.00
2018-12-17T04:47:59.905Z,99679.00
2018-12-17T04:50:29.382Z,99675.00
2018-12-17T04:52:58.941Z,99684.00
2018-12-17T04:55:28.337Z,99683.00
2018-12-17T04:57:58.292Z,99685.00
2018-12-17T05:00:27.794Z,99687.00
2018-12-17T05:02:57.797Z,99693.00
2018-12-17T05:05:28.487Z,99698.00
2018-12-17T05:07:57.921Z,99695.00
2018-12-17T05:10:28.713Z,99696.00
2018-12-17T05:12:59.740Z,99703.00
2018-12-17T05:15:32.836Z,99707.00
2018-12-17T05:18:03.410Z,99711.00
2018-12-17T05:20:33.379Z,99718.00
2018-12-17T05:23:03.568Z,99729.00
2018-12-17T05:25:34.033Z,99734.00
2018-12-17T05:28:05.032Z,99742.00
2018-12-17T05:30:34.609Z,99738.00
2018-12-17T05:33:05.309Z,99738.00
2018-12-17T05:35:36.696Z,99737.00
2018-12-17T05:38:06.332Z,99740.00
2018-12-17T05:40:35.781Z,99741.00
2018-12-17T05:43:09.206Z,99747.00
2018-12-17T05:45:42.662Z,99751.00
2018-12-17T05:48:18.762Z,99748.00
2018-12-17T05:50:49.609Z,99753.00
2018-12-17T05:53:19.021Z,99759.00
2018-12-17T05:55:49.450Z,99769.00
2018-12-17T05:58:19.009Z,99774.00
2018-12-17T06:00:48.380Z,99778.00
2018-12-17T06:03:18.405Z,99779.00
2018-12-17T06:05:48.988Z,99775.00
2018-12-17T06:08:20.243Z,99774.00
2018-12-17T06:10:49.863Z,99772.00
2018-12-17T06:13:19.347Z,99770.00
2018-12-17T06:15:50.482Z,99777.00
2018-12-17T06:18:20.075Z,99779.00
2018-12-17T06:20:52.043Z,99781.00
2018-12-17T06:23:22.358Z,99774.00
2018-12-17T06:25:56.889Z,99778.00
2018-12-17T06:28:34.182Z,99787.00
2018-12-17T06:31:04.373Z,99783.00
2018-12-17T06:33:33.801Z,99794.00
2018-12-17T06:36:04.498Z,99790.00
2018-12-17T06:38:34.319Z,99794.00
2018-12-17T06:41:04.386Z,99804.00
2018-12-17T06:43:34.930Z,99810.00
2018-12-17T06:46:06.527Z,99818.00
2018-12-17T06:48:38.341Z,99805.00
2018-12-17T06:51:07.755Z,99818.00
2018-12-17T06:53:37.334Z,99819.00
2018-12-17T06:56:06.703Z,99824.00
2018-12-17T06:58:37.018Z,99826.00
2018-12-17T07:01:06.513Z,99828.00
2018-12-17T07:03:37.814Z,99829.00
2018-12-17T07:06:07.404Z,99830.00
2018-12-17T07:08:36.816Z,99839.00
2018-12-17T07:11:06.619Z,99844.00
2018-12-17T07:13:37.482Z,99845.00
2018-12-17T07:16:06.844Z,99851.00
2018-12-17T07:18:36.859Z,99856.00
2018-12-17T07:21:08.139Z,99853.00
2018-12-17T07:23:42.606Z,99859.00
2018-12-17T07:26:12.464Z,99857.00
2018-12-17T07:28:41.987Z,99852.00
2018-12-17T07:31:11.457Z,99856.00
2018-12-17T07:33:41.015Z,99857.00
2018-12-17T07:36:10.474Z,99864.00
2018-12-17T07:38:41.113Z,99860.00
2018-12-17T07:41:11.668Z,99857.00
2018-12-17T07:43:44.203Z,99864.00
2018-12-17T07:46:14.162Z,99859.00
2018-12-17T07:48:44.099Z,99859.00
2018-12-17T07:51:18.812Z,99866.00
2018-12-17T07:53:51.762Z,99863.00
2018-12-17T07:56:21.456Z,99863.00
2018-12-17T07:58:51.164Z,99883.00
2018-12-17T08:01:23.364Z,99888.00
2018-12-17T08:03:54.911Z,99890.00
2018-12-17T08:06:26.071Z,99887.00
2018-12-17T08:09:00.357Z,99897.00
2018-12-17T08:11:29.846Z,99900.00
2018-12-17T08:14:00.250Z,99898.00
2018-12-17T08:16:30.151Z,99905.00
2018-12-17T08:18:59.893Z,99910.00
2018-12-17T08:21:35.256Z,99916.00
2018-12-17T08:24:05.283Z,99912.00
2018-12-17T08:26:36.031Z,99913.00
2018-12-17T08:29:06.193Z,99918.00
2018-12-17T08:31:35.671Z,99921.00
2018-12-17T08:34:05.728Z,99931.00
2018-12-17T08:36:35.938Z,99937.00
2018-12-17T08:39:09.112Z,99944.00
2018-12-17T08:41:39.306Z,99943.00
2018-12-17T08:44:08.670Z,99947.00
2018-12-17T08:46:38.910Z,99951.00
2018-12-17T08:49:14.086Z,99963.00
2018-12-17T08:51:45.408Z,99951.00
2018-12-17T08:54:29.025Z,99959.00
2018-12-17T08:57:01.032Z,99973.00
2018-12-17T08:59:30.755Z,99975.00
2018-12-17T09:02:00.978Z,99973.00
2018-12-17T09:04:35.453Z,99969.00
2018-12-17T09:07:05.833Z,99971.00
2018-12-17T09:09:36.041Z,99978.00
2018-12-17T09:12:07.468Z,99977.00
2018-12-17T09:14:37.440Z,99990.00
2018-12-17T09:17:07.052Z,99992.00
2018-12-17T09:19:37.951Z,99986.00
2018-12-17T09:22:07.521Z,99991.00
2018-12-17T09:24:41.564Z,99994.00
2018-12-17T09:27:13.291Z,99998.00
2018-12-17T09:29:43.298Z,99998.00
2018-12-17T09:32:13.960Z,99999.00
2018-12-17T09:34:43.469Z,100004.00
2018-12-17T09:37:12.920Z,99994.00
2018-12-17T09:39:42.664Z,99994.00
2018-12-17T09:42:12.928Z,99997.00
2018-12-17T09:44:44.479Z,99995.00
2018-12-17T09:47:14.810Z,99994.00
2018-12-17T09:49:44.345Z,100005.00
2018-12-17T09:52:14.412Z,100003.00
2018-12-17T09:54:45.470Z,100001.00
2018-12-17T09:57:14.946Z,100001.00
2018-12-17T09:59:48.635Z,99996.00
2018-12-17T10:02:18.410Z,99992.00
2018-12-17T10:04:47.855Z,99998.00
2018-12-17T10:07:17.304Z,99992.00
2018-12-17T10:09:46.831Z,100001.00
2018-12-17T10:12:17.228Z,99999.00
2018-12-17T10:14:46.782Z,100002.00
2018-12-17T10:17:17.840Z,100000.00
2018-12-17T10:19:47.445Z,99995.00
2018-12-17T10:22:17.666Z,99990.00
2018-12-17T10:24:48.391Z,99998.00
2018-12-17T10:27:20.385Z,99991.00
2018-12-17T10:29:51.348Z,99994.00
2018-12-17T10:32:22.373Z,100000.00
2018-12-17T10:34:52.886Z,100011.00
2018-12-17T10:37:24.126Z,100004.00
2018-12-17T10:39:55.632Z,99998.00
2018-12-17T10:42:25.062Z,99997.00
2018-12-17T10:44:55.061Z,99996.00
2018-12-17T10:47:24.525Z,99992.00
2018-12-17T10:49:54.169Z,99991.00
2018-12-17T10:52:24.344Z,99998.00
2018-12-17T10:54:54.356Z,99993.00
2018-12-17T10:57:23.864Z,99995.00
2018-12-17T10:59:54.055Z,99990.00
2018-12-17T11:02:28.764Z,99994.00
2018-12-17T11:05:08.023Z,99994.00
2018-12-17T11:07:38.112Z,99984.00
2018-12-17T11:10:09.350Z,99989.00
2018-12-17T11:12:39.855Z,99986.00
2018-12-17T11:15:11.537Z,99982.00
2018-12-17T11:17:41.867Z,99980.00
2018-12-17T11:20:12.190Z,99982.00
2018-12-17T11:22:41.864Z,99978.00
2018-12-17T11:25:11.312Z,99980.00
2018-12-17T11:27:40.820Z,99984.00
2018-12-17T11:30:12.937Z,99976.00
2018-12-17T11:32:44.392Z,99989.00
2018-12-17T11:35:14.186Z,99978.00
2018-12-17T11:37:43.785Z,99986.00
2018-12-17T11:40:13.330Z,99975.00
2018-12-17T11:42:42.984Z,99968.00
2018-12-17T11:45:12.405Z,99970.00
2018-12-17T11:47:41.991Z,99968.00
2018-12-17T11:50:11.505Z,99971.00
2018-12-17T11:52:41.538Z,99977.00
2018-12-17T11:55:11.451Z,99981.00
2018-12-17T11:57:57.896Z,99987.00
2018-12-17T12:00:28.629Z,99986.00
2018-12-17T12:02:59.194Z,99986.00
2018-12-17T12:05:28.904Z,99981.00
2018-12-17T12:07:58.425Z,99991.00
2018-12-17T12:10:28.025Z,99990.00
2018-12-17T12:12:57.548Z,99999.00
2018-12-17T12:15:27.833Z,100000.00
2018-12-17T12:17:57.365Z,99998.00
2018-12-17T12:20:26.726Z,100005.00
2018-12-17T12:22:56.526Z,100000.00
2018-12-17T12:25:27.042Z,99994.00
2018-12-17T12:27:56.661Z,99999.00
2018-12-17T12:30:26.184Z,100000.00
2018-12-17T12:32:55.748Z,100003.00
2018-12-17T12:35:26.200Z,100007.00
2018-12-17T12:37:55.720Z,100005.00
2018-12-17T12:40:25.286Z,100011.00
2018-12-17T12:42:54.907Z,100013.00
2018-12-17T12:45:24.554Z,100028.00
2018-12-17T12:47:54.693Z,100022.00
2018-12-17T12:50:24.332Z,100020.00
2018-12-17T12:52:53.979Z,100021.00
2018-12-17T12:55:23.606Z,100031.00
2018-12-17T12:57:53.148Z,100034.00
2018-12-17T13:00:22.930Z,100036.00
2018-12-17T13:02:52.544Z,100030.00
2018-12-17T13:05:21.955Z,100033.00
2018-12-17T13:07:51.585Z,100032.00
2018-12-17T13:10:20.951Z,100033.00
2018-12-17T13:12:50.394Z,100026.00
2018-12-17T13:15:19.835Z,100021.00
2018-12-17T13:17:49.395Z,100028.00
2018-12-17T13:20:18.866Z,100032.00
2018-12-17T13:22:48.290Z,100029.00
2018-12-17T13:25:29.542Z,100028.00
2018-12-17T13:27:58.924Z,100032.00
2018-12-17T13:30:28.716Z,100038.00
2018-12-17T13:32:58.380Z,100038.00
2018-12-17T13:35:27.823Z,100041.00
2018-12-17T13:37:57.253Z,100033.00
2018-12-17T13:40:26.665Z,100040.00
2018-12-17T13:42:56.132Z,100043.00
2018-12-17T13:45:25.590Z,100043.00
2018-12-17T13:47:54.986Z,100044.00
2018-12-17T13:50:30.321Z,100047.00
2018-12-17T13:53:05.276Z,100052.00
2018-12-17T13:55:35.239Z,100054.00
2018-12-17T13:58:04.636Z,100061.00
2018-12-17T14:00:34.171Z,100075.00
2018-12-17T14:03:03.658Z,100060.00
2018-12-17T14:05:33.272Z,100070.00
2018-12-17T14:08:03.013Z,100075.00
2018-12-17T14:10:37.704Z,100067.00
2018-12-17T14:13:07.600Z,100075.00
2018-12-17T14:15:42.262Z,100079.00
2018-12-17T14:18:16.979Z,100080.00
2018-12-17T14:20:51.610Z,100085.00
2018-12-17T14:23:21.108Z,100087.00
2018-12-17T14:25:50.670Z,100090.00
2018-12-17T14:28:20.298Z,100094.00
2018-12-17T14:30:49.900Z,100096.00
2018-12-17T14:35:54.162Z,100099.00
2018-12-17T14:38:23.606Z,100112.00
2018-12-17T14:40:53.860Z,100108.00
2018-12-17T14:43:23.565Z,100111.00
2018-12-17T14:45:54.026Z,100113.00
2018-12-17T14:48:23.818Z,100112.00
2018-12-17T14:50:53.342Z,100112.00
2018-12-17T14:53:22.916Z,100119.00
2018-12-17T14:55:52.500Z,100111.00
2018-12-17T14:58:22.068Z,100114.00
2018-12-17T15:00:51.641Z,100113.00
2018-12-17T15:03:21.170Z,100122.00
2018-12-17T15:05:53.481Z,100127.00
2018-12-17T15:08:23.128Z,100118.00
2018-12-17T15:10:52.647Z,100124.00
2018-12-17T15:13:22.159Z,100122.00
2018-12-17T15:16:00.718Z,100131.00
2018-12-17T15:18:30.448Z,100132.00
2018-12-17T15:21:03.200Z,100139.00
2018-12-17T15:23:34.464Z,100137.00
2018-12-17T15:26:06.308Z,100126.00
2018-12-17T15:28:38.752Z,100135.00
2018-12-17T15:31:12.373Z,100142.00
2018-12-17T15:33:42.478Z,100147.00
2018-12-17T15:36:12.591Z,100150.00
2018-12-17T15:38:42.564Z,100158.00
2018-12-17T15:41:13.152Z,100158.00
2018-12-17T15:43:42.997Z,100161.00
2018-12-17T15:46:13.930Z,100167.00
2018-12-17T15:48:43.726Z,100171.00
2018-12-17T15:51:14.294Z,100171.00
2018-12-17T15:53:44.231Z,100166.00
2018-12-17T15:56:14.310Z,100166.00
2018-12-17T15:58:46.704Z,100175.00
2018-12-17T16:01:16.738Z,100170.00
2018-12-17T16:03:48.545Z,100165.00
2018-12-17T16:06:20.272Z,100177.00
2018-12-17T16:08:52.225Z,100170.00
2018-12-17T16:11:22.627Z,100165.00
2018-12-17T16:13:53.512Z,100179.00
2018-12-17T16:16:22.918Z,100175.00
2018-12-17T16:18:54.216Z,100180.00
2018-12-17T16:21:27.319Z,100178.00
2018-12-17T16:23:57.802Z,100173.00
2018-12-17T16:26:30.337Z,100174.00
2018-12-17T16:29:02.038Z,100176.00
2018-12-17T16:31:34.520Z,100182.00
2018-12-17T16:34:04.888Z,100178.00
2018-12-17T16:36:38.717Z,100184.00
2018-12-17T16:39:11.494Z,100176.00
2018-12-17T16:41:42.502Z,100187.00
2018-12-17T16:44:14.292Z,100184.00
2018-12-17T16:46:48.543Z,100186.00
2018-12-17T16:49:22.105Z,100189.00
2018-12-17T16:51:54.179Z,100190.00
2018-12-17T16:54:29.542Z,100199.00
2018-12-17T16:56:59.318Z,100201.00
2018-12-17T16:59:34.389Z,100207.00
2018-12-17T17:02:07.226Z,100213.00
2018-12-17T17:04:38.176Z,100211.00
2018-12-17T17:07:09.019Z,100215.00
2018-12-17T17:09:42.766Z,100221.00
2018-12-17T17:12:14.373Z,100224.00
2018-12-17T17:14:48.327Z,100218.00
2018-12-17T17:17:19.927Z,100218.00
2018-12-17T17:19:54.295Z,100224.00
2018-12-17T17:22:27.494Z,100233.00
2018-12-17T17:25:00.560Z,100227.00
2018-12-17T17:27:30.823Z,100228.00
2018-12-17T17:30:02.615Z,100225.00
2018-12-17T17:32:35.081Z,100230.00
2018-12-17T17:35:07.179Z,100228.00
2018-12-17T17:37:38.044Z,100228.00
2018-12-17T17:40:09.650Z,100236.00
2018-12-17T17:42:41.601Z,100240.00
2018-12-17T17:45:12.349Z,100241.00
2018-12-17T17:47:43.001Z,100240.00
2018-12-17T17:50:12.839Z,100239.00
2018-12-17T17:52:42.735Z,100241.00
2018-12-17T17:55:12.317Z,100243.00
2018-12-17T17:57:42.147Z,100239.00
2018-12-17T18:00:12.191Z,100240.00
2018-12-17T18:02:45.617Z,100241.00
2018-12-17T18:05:16.196Z,100248.00
2018-12-17T18:07:46.270Z,100254.00
2018-12-17T18:10:18.243Z,100253.00
2018-12-17T18:12:48.204Z,100254.00
2018-12-17T18:15:19.159Z,100261.00
2018-12-17T18:17:49.092Z,100260.00
2018-12-17T18:20:21.160Z,100258.00
2018-12-17T18:22:50.916Z,100266.00
2018-12-17T18:25:20.747Z,100278.00
2018-12-17T18:27:50.979Z,100279.00
2018-12-17T18:30:21.824Z,100287.00
2018-12-17T18:32:52.521Z,100299.00
2018-12-17T18:35:23.282Z,100302.00
2018-12-17T18:37:54.025Z,100303.00
2018-12-17T18:40:25.113Z,100308.00
2018-12-17T18:42:55.493Z,100312.00
2018-12-17T18:45:27.817Z,100317.00
2018-12-17T18:48:00.447Z,100324.00
2018-12-17T18:50:31.817Z,100324.00
2018-12-17T18:53:03.373Z,100336.00
2018-12-17T18:55:37.701Z,100341.00
2018-12-17T18:58:10.735Z,100340.00
2018-12-17T19:00:42.316Z,100336.00
2018-12-17T19:03:16.247Z,100346.00
2018-12-17T19:05:48.070Z,100342.00
2018-12-17T19:08:20.529Z,100346.00
2018-12-17T19:10:51.586Z,100352.00
2018-12-17T19:13:22.733Z,100353.00
2018-12-17T19:15:52.864Z,100353.00
2018-12-17T19:18:22.870Z,100354.00
2018-12-17T19:20:53.803Z,100358.00
2018-12-17T19:23:26.061Z,100357.00
2018-12-17T19:25:57.394Z,100356.00
2018-12-17T19:28:32.003Z,100359.00
2018-12-17T19:31:02.697Z,100363.00
2018-12-17T19:33:35.034Z,100368.00
2018-12-17T19:36:06.508Z,100357.00
2018-12-17T19:38:38.608Z,100367.00
2018-12-17T19:41:09.287Z,100359.00
2018-12-17T19:43:42.548Z,100365.00
2018-12-17T19:46:14.206Z,100370.00
2018-12-17T19:48:44.372Z,100361.00
2018-12-17T19:51:14.260Z,100359.00
2018-12-17T19:53:44.180Z,100357.00
2018-12-17T19:56:14.119Z,100367.00
2018-12-17T19:58:44.231Z,100376.00
2018-12-17T20:01:13.868Z,100371.00
2018-12-17T20:03:44.003Z,100376.00
2018-12-17T20:06:13.868Z,100376.00
2018-12-17T20:08:43.905Z,100384.00
2018-12-17T20:11:13.628Z,100390.00
2018-12-17T20:13:43.459Z,100389.00
2018-12-17T20:16:13.550Z,100389.00
2018-12-17T20:18:43.089Z,100388.00
2018-12-17T20:21:13.882Z,100394.00
2018-12-17T20:23:43.646Z,100393.00
2018-12-17T20:26:14.026Z,100397.00
2018-12-17T20:28:44.019Z,100399.00
2018-12-17T20:31:13.733Z,100402.00
2018-12-17T20:33:43.531Z,100397.00
2018-12-17T20:36:19.691Z,100395.00
2018-12-17T20:38:50.213Z,100400.00
2018-12-17T20:41:20.040Z,100405.00
2018-12-17T20:43:49.921Z,100394.00
2018-12-17T20:46:20.379Z,100403.00
2018-12-17T20:48:50.079Z,100404.00
2018-12-17T20:51:21.305Z,100394.00
2018-12-17T20:53:50.947Z,100404.00
2018-12-17T20:56:20.558Z,100405.00
2018-12-17T20:58:50.311Z,100400.00
2018-12-17T21:01:20.646Z,100400.00
2018-12-17T21:03:50.754Z,100405.00
2018-12-17T21:06:20.649Z,100399.00
2018-12-17T21:08:50.656Z,100400.00
2018-12-17T21:11:21.872Z,100398.00
2018-12-17T21:13:51.337Z,100400.00
2018-12-17T21:16:21.533Z,100397.00
2018-12-17T21:18:51.444Z,100396.00
2018-12-17T21:21:21.279Z,100397.00
2018-12-17T21:23:51.171Z,100393.00
2018-12-17T21:26:20.883Z,100395.00
2018-12-17T21:28:50.728Z,100398.00
2018-12-17T21:31:20.541Z,100398.00
2018-12-17T21:33:50.180Z,100394.00
2018-12-17T21:36:19.848Z,100410.00
2018-12-17T21:38:49.675Z,100414.00
2018-12-17T21:41:19.436Z,100411.00
2018-12-17T21:43:49.047Z,100415.00
2018-12-17T21:46:18.637Z,100413.00
2018-12-17T21:48:49.338Z,100409.00
2018-12-17T21:51:20.331Z,100428.00
2018-12-17T21:53:51.815Z,100421.00
2018-12-17T21:56:25.494Z,100426.00
2018-12-17T21:58:59.784Z,100430.00
2018-12-17T22:01:34.419Z,100434.00
2018-12-17T22:04:12.276Z,100436.00
2018-12-17T22:06:46.696Z,100423.00
2018-12-17T22:09:19.973Z,100436.00
2018-12-17T22:11:51.120Z,100436.00
2018-12-17T22:14:27.101Z,100437.00
2018-12-17T22:17:00.329Z,100437.00
2018-12-17T22:19:33.149Z,100445.00
2018-12-17T22:22:06.996Z,100445.00
2018-12-17T22:24:40.147Z,100447.00
2018-12-17T22:27:12.535Z,100445.00
2018-12-17T22:29:43.820Z,100445.00
2018-12-17T22:32:15.845Z,100440.00
2018-12-17T22:34:49.493Z,100451.00
2018-12-17T22:37:20.659Z,100443.00
2018-12-17T22:39:52.959Z,100454.00
2018-12-17T22:42:25.697Z,100454.00
2018-12-17T22:44:58.123Z,100451.00
2018-12-17T22:47:31.949Z,100452.00
2018-12-17T22:52:44.447Z,100457.00
2018-12-17T22:55:20.125Z,100461.00
2018-12-17T22:57:52.917Z,100459.00
2018-12-17T23:00:25.948Z,100463.00
2018-12-17T23:02:56.869Z,100469.00
2018-12-17T23:05:29.264Z,100468.00
2018-12-17T23:08:01.535Z,100467.00
2018-12-17T23:10:48.374Z,100470.00
2018-12-17T23:13:37.993Z,100473.00
2018-12-17T23:16:25.889Z,100463.00
2018-12-17T23:18:59.316Z,100459.00
2018-12-17T23:21:29.796Z,100463.00
2018-12-17T23:24:02.716Z,100464.00
2018-12-17T23:26:38.816Z,100465.00
2018-12-17T23:29:11.147Z,100462.00
2018-12-17T23:31:53.782Z,100464.00
2018-12-17T23:34:24.760Z,100467.00
2018-12-17T23:36:58.910Z,100466.00
2018-12-17T23:39:30.048Z,100473.00
2018-12-17T23:42:01.021Z,100471.00
2018-12-17T23:44:37.790Z,100471.00
2018-12-17T23:47:09.598Z,100471.00
2018-12-17T23:49:43.384Z,100478.00
2018-12-17T23:52:18.471Z,100467.00
2018-12-17T23:54:52.695Z,100474.00
2018-12-17T23:57:26.062Z,100476.00
2018-12-17T23:59:59.937Z,100476.00
